Time;durP1;ratioP1;P1;durP2;ratioP2;P2;SDS_P1;SDS_P2;PMS_P1;PMS_P2;Temp;Humidity;BMP_temperature;BMP_pressure;BME280_temperature;BME280_humidity;BME280_pressure;Samples;Min_cycle;Max_cycle;Signal;HPM_P1;HPM_P2
2023/09/10 00:02:20;;;;;;;11.30;7.32;;;;;;;27.93;47.26;101711.25;21061558;28;20043;-54
2023/09/10 00:12:21;;;;;;;8.63;7.30;;;;;;;27.93;46.79;101720.50;21056437;28;20094;-57
2023/09/10 00:22:22;;;;;;;12.75;7.07;;;;;;;27.90;47.32;101729.56;21067626;28;20380;-52
2023/09/10 00:32:24;;;;;;;11.35;7.25;;;;;;;27.94;47.45;101758.75;21061152;28;20036;-55
2023/09/10 00:42:32;;;;;;;9.68;6.93;;;;;;;27.81;47.54;101774.47;21060050;28;20052;-56
2023/09/10 00:52:33;;;;;;;8.68;6.85;;;;;;;27.86;47.16;101799.69;21076853;28;20067;-54
2023/09/10 01:02:35;;;;;;;8.23;6.55;;;;;;;27.91;47.19;101840.13;21076062;28;20036;-56
2023/09/10 01:12:43;;;;;;;7.80;6.65;;;;;;;27.83;47.14;101850.09;21069912;28;20077;-57
2023/09/10 01:23:04;;;;;;;8.40;6.20;;;;;;;27.83;46.76;101881.03;21087368;28;20562;-55
2023/09/10 01:33:30;;;;;;;7.03;6.32;;;;;;;27.76;47.11;101905.88;21087949;28;20495;-57
2023/09/10 01:43:35;;;;;;;6.07;5.47;;;;;;;27.79;46.34;101910.91;21088356;28;20070;-54
2023/09/10 01:53:39;;;;;;;8.70;6.13;;;;;;;27.72;46.41;101897.25;21088353;28;20036;-55
2023/09/10 02:03:41;;;;;;;6.60;5.70;;;;;;;27.75;46.28;101879.72;21087513;28;20031;-56
2023/09/10 02:13:43;;;;;;;6.20;5.60;;;;;;;27.71;46.12;101881.44;21086155;28;20399;-54
2023/09/10 02:23:45;;;;;;;6.35;5.18;;;;;;;27.68;46.19;101865.22;21085889;28;20040;-56
2023/09/10 02:33:46;;;;;;;6.38;5.40;;;;;;;27.68;46.34;101867.19;21084622;28;20052;-56
2023/09/10 02:43:48;;;;;;;5.47;4.93;;;;;;;27.66;45.94;101844.16;21082935;28;20059;-58
2023/09/10 02:53:49;;;;;;;5.68;5.13;;;;;;;27.64;45.95;101864.13;21083272;28;20055;-56
2023/09/10 03:03:51;;;;;;;6.97;5.38;;;;;;;27.53;46.30;101852.19;21082455;28;20040;-57
2023/09/10 03:13:55;;;;;;;5.30;4.80;;;;;;;27.57;45.98;101858.06;20998596;28;20040;-55
2023/09/10 03:23:57;;;;;;;6.03;4.72;;;;;;;27.52;46.03;101858.13;20997463;28;20048;-57
2023/09/10 03:33:58;;;;;;;5.18;4.68;;;;;;;27.55;45.66;101799.31;21005259;28;20032;-59
2023/09/10 03:43:59;;;;;;;5.38;4.88;;;;;;;27.49;45.56;101768.78;21065985;28;20032;-56
2023/09/10 03:54:04;;;;;;;6.78;4.32;;;;;;;27.45;45.75;101759.31;21064095;28;20032;-60
2023/09/10 04:04:06;;;;;;;4.55;4.15;;;;;;;27.44;45.90;101743.56;21056443;28;20398;-57
2023/09/10 04:14:10;;;;;;;4.80;4.30;;;;;;;27.41;45.47;101749.81;21068539;28;20044;-56
2023/09/10 04:24:11;;;;;;;4.75;4.10;;;;;;;27.38;45.72;101737.19;21070828;28;20044;-59
2023/09/10 04:34:13;;;;;;;5.18;4.63;;;;;;;27.38;45.89;101758.84;21075488;28;20425;-58
2023/09/10 04:44:14;;;;;;;5.03;4.63;;;;;;;27.34;45.70;101778.28;21041523;28;20552;-57
2023/09/10 04:54:15;;;;;;;5.95;4.85;;;;;;;27.29;45.68;101784.81;21078751;28;20559;-56
2023/09/10 05:04:17;;;;;;;3.95;3.58;;;;;;;27.33;45.98;101780.28;21075875;28;20056;-58
2023/09/10 05:14:18;;;;;;;4.80;4.40;;;;;;;27.28;46.24;101766.31;21083939;28;20040;-56
2023/09/10 05:24:19;;;;;;;9.27;4.43;;;;;;;27.23;46.36;101746.72;21085394;28;20047;-53
2023/09/10 05:34:21;;;;;;;5.45;4.15;;;;;;;27.22;46.29;101750.69;21089128;28;20039;-57
2023/09/10 05:44:22;;;;;;;8.10;4.07;;;;;;;27.22;46.04;101745.06;21059189;28;20125;-56
2023/09/10 05:54:23;;;;;;;9.65;4.15;;;;;;;27.19;46.30;101740.03;21063268;28;20028;-56
2023/09/10 06:04:25;;;;;;;7.70;3.92;;;;;;;27.14;46.02;101747.72;21086178;28;20052;-57
2023/09/10 06:14:27;;;;;;;7.88;3.88;;;;;;;27.04;45.73;101737.44;21086506;28;20105;-54
2023/09/10 06:24:29;;;;;;;5.00;3.85;;;;;;;27.09;46.00;101748.63;21071663;28;20056;-58
2023/09/10 06:34:34;;;;;;;4.28;3.10;;;;;;;26.99;46.43;101748.75;21076054;28;20055;-55
2023/09/10 06:44:35;;;;;;;6.00;4.28;;;;;;;27.03;46.52;101752.59;21074477;28;20032;-59
2023/09/10 06:54:37;;;;;;;5.25;3.92;;;;;;;27.00;46.18;101744.81;21075170;28;20081;-61
2023/09/10 07:04:47;;;;;;;4.70;3.92;;;;;;;27.02;45.97;101739.69;21077430;28;20056;-56
2023/09/10 07:14:49;;;;;;;6.00;3.50;;;;;;;26.95;45.92;101733.63;21069488;28;20040;-55
2023/09/10 07:24:50;;;;;;;4.15;3.17;;;;;;;26.94;46.05;101724.38;21069140;28;20082;-56
2023/09/10 07:34:51;;;;;;;3.90;3.35;;;;;;;26.89;46.26;101717.97;21074262;28;20547;-57
2023/09/10 07:44:53;;;;;;;4.53;3.33;;;;;;;26.89;46.21;101712.38;21066222;28;20069;-55
2023/09/10 07:54:54;;;;;;;4.57;3.35;;;;;;;26.78;45.99;101694.84;21059362;28;20028;-56
2023/09/10 08:04:55;;;;;;;3.10;2.80;;;;;;;26.88;45.75;101714.34;21060044;28;20106;-55
2023/09/10 08:14:57;;;;;;;3.35;2.83;;;;;;;26.79;45.66;101714.19;21062564;28;20097;-56
2023/09/10 08:24:58;;;;;;;3.35;2.80;;;;;;;26.78;48.00;101695.66;21070198;28;20055;-56
2023/09/10 08:35:00;;;;;;;5.90;3.60;;;;;;;26.94;49.37;101707.53;21067748;28;20097;-55
2023/09/10 08:45:05;;;;;;;3.50;3.03;;;;;;;27.11;49.60;101709.81;21062410;28;20040;-57
2023/09/10 08:55:14;;;;;;;3.88;3.47;;;;;;;27.18;49.60;101701.84;21047646;28;20490;-55
2023/09/10 09:05:15;;;;;;;3.55;3.10;;;;;;;27.29;49.34;101694.06;21067371;28;20093;-57
2023/09/10 09:15:18;;;;;;;3.30;3.00;;;;;;;27.19;49.45;101681.03;21056545;28;20048;-56
2023/09/10 09:25:20;;;;;;;2.70;2.50;;;;;;;27.40;49.31;101701.22;21068948;28;20086;-54
2023/09/10 09:35:27;;;;;;;3.58;3.15;;;;;;;27.44;49.24;101709.84;21045557;28;20044;-58
2023/09/10 09:45:29;;;;;;;;;;;;;;;27.49;49.32;101721.00;21081740;28;20048;-55
2023/09/10 09:55:30;;;;;;;3.10;2.80;;;;;;;27.57;49.08;101723.94;21083473;28;19920;-56
2023/09/10 10:05:34;;;;;;;2.75;2.50;;;;;;;27.52;49.31;101723.19;21081237;28;20065;-56
2023/09/10 10:15:43;;;;;;;2.92;2.63;;;;;;;27.62;49.19;101725.81;21074359;28;20036;-56
2023/09/10 10:25:46;;;;;;;2.75;2.45;;;;;;;27.68;49.13;101746.28;21072966;28;20046;-56
2023/09/10 10:36:28;;;;;;;2.80;2.60;;;;;;;27.62;49.33;101773.63;21068592;28;20540;-57
2023/09/10 10:46:31;;;;;;;2.88;2.58;;;;;;;27.76;48.77;101770.88;21060592;28;20043;-57
2023/09/10 10:56:36;;;;;;;3.30;2.88;;;;;;;27.78;48.87;101774.25;21057674;28;20109;-54
2023/09/10 11:07:18;;;;;;;2.78;2.47;;;;;;;27.76;49.06;101770.88;21073376;28;20380;-55
2023/09/10 11:17:24;;;;;;;2.60;2.40;;;;;;;27.74;47.62;101768.38;21064767;28;20548;-56
2023/09/10 11:27:30;;;;;;;2.63;2.42;;;;;;;27.54;46.57;101786.41;21067724;28;20077;-57
2023/09/10 11:37:33;;;;;;;3.22;2.72;;;;;;;27.42;46.15;101799.25;21066311;28;20152;-56
2023/09/10 11:47:35;;;;;;;3.95;2.70;;;;;;;27.30;45.79;101823.03;21063940;28;20044;-56
2023/09/10 11:57:39;;;;;;;3.08;2.50;;;;;;;27.20;45.56;101809.13;21055272;28;20028;-57
2023/09/10 12:07:44;;;;;;;2.65;2.40;;;;;;;27.08;45.37;101817.16;21074486;28;20052;-55
2023/09/10 12:17:45;;;;;;;3.85;2.63;;;;;;;27.05;45.13;101845.84;21071362;28;20074;-56
2023/09/10 12:27:47;;;;;;;2.97;2.67;;;;;;;26.96;45.15;101858.88;21069318;28;20491;-55
2023/09/10 12:37:54;;;;;;;3.67;2.60;;;;;;;26.86;45.15;101854.25;21067815;28;20109;-54
2023/09/10 12:47:55;;;;;;;4.57;2.70;;;;;;;26.92;48.03;101869.88;21072780;28;20081;-55
2023/09/10 12:57:57;;;;;;;3.28;2.90;;;;;;;27.02;49.55;101882.97;21072640;28;20560;-56
2023/09/10 13:08:01;;;;;;;2.85;2.60;;;;;;;27.10;50.08;101887.94;21074437;28;20411;-55
2023/09/10 13:18:03;;;;;;;2.70;2.42;;;;;;;27.16;49.96;101897.97;21054772;28;20086;-56
2023/09/10 13:28:05;;;;;;;3.25;2.78;;;;;;;27.23;49.88;101887.22;21043240;28;20044;-56
2023/09/10 13:38:07;;;;;;;3.10;2.80;;;;;;;27.20;49.95;101878.53;21067102;28;20037;-57
2023/09/10 13:48:08;;;;;;;2.95;2.60;;;;;;;27.34;49.68;101883.13;21086658;28;20055;-55
2023/09/10 13:58:10;;;;;;;2.63;2.42;;;;;;;27.36;49.88;101880.84;21076919;28;20097;-52
2023/09/10 14:08:11;;;;;;;2.90;2.20;;;;;;;27.39;49.79;101864.50;21078259;28;20441;-56
2023/09/10 14:18:12;;;;;;;2.88;2.58;;;;;;;27.44;49.81;101853.19;21080018;28;20152;-55
2023/09/10 14:28:14;;;;;;;3.63;2.20;;;;;;;27.48;49.71;101848.63;21076352;28;20044;-52
2023/09/10 14:38:19;;;;;;;5.43;2.20;;;;;;;27.55;49.59;101854.72;21059128;28;20040;-54
2023/09/10 14:48:20;;;;;;;2.20;2.00;;;;;;;27.60;49.66;101857.44;21076836;28;20052;-55
2023/09/10 14:58:22;;;;;;;2.22;2.03;;;;;;;27.62;49.83;101872.03;21062517;28;20145;-54
2023/09/10 15:08:23;;;;;;;2.10;1.90;;;;;;;27.65;49.49;101867.78;21055339;28;20044;-54
2023/09/10 15:18:25;;;;;;;5.13;3.38;;;;;;;27.70;49.94;101850.84;21058861;28;20043;-55
2023/09/10 15:28:27;;;;;;;4.38;3.08;;;;;;;27.63;48.49;101839.97;21071507;28;20040;-56
2023/09/10 15:38:28;;;;;;;6.00;3.97;;;;;;;27.46;47.82;101834.91;21073549;28;20036;-57
2023/09/10 15:48:29;;;;;;;9.73;4.95;;;;;;;27.38;47.50;101840.38;21070178;28;20044;-54
2023/09/10 15:58:31;;;;;;;11.10;5.88;;;;;;;27.33;51.05;101819.63;21074620;28;20045;-53
2023/09/10 16:08:32;;;;;;;12.88;5.72;;;;;;;27.35;52.96;101811.75;21060272;28;20063;-52
2023/09/10 16:18:33;;;;;;;12.05;5.32;;;;;;;27.42;53.15;101808.53;21062840;28;20043;-55
2023/09/10 16:28:37;;;;;;;9.45;4.97;;;;;;;27.46;53.37;101805.94;21051352;28;20498;-54
2023/09/10 16:38:38;;;;;;;14.48;5.85;;;;;;;27.53;53.48;101803.56;21071374;28;20024;-52
2023/09/10 16:48:40;;;;;;;11.30;5.43;;;;;;;27.54;53.39;101802.47;21073945;28;20051;-54
2023/09/10 16:58:41;;;;;;;10.85;5.05;;;;;;;27.62;53.21;101782.06;21090259;28;20071;-53
2023/09/10 17:08:43;;;;;;;13.05;5.55;;;;;;;27.64;52.85;101785.41;21083032;28;20035;-55
2023/09/10 17:18:45;;;;;;;12.35;4.90;;;;;;;27.72;52.76;101790.38;21066762;28;20089;-57
2023/09/10 17:28:47;;;;;;;9.02;5.13;;;;;;;27.74;52.92;101762.78;21078180;28;20040;-55
2023/09/10 17:38:48;;;;;;;13.93;5.07;;;;;;;27.84;52.67;101747.69;21077437;28;20102;-58
2023/09/10 17:48:52;;;;;;;6.95;4.30;;;;;;;27.91;52.51;101738.84;21054760;28;20048;-57
2023/09/10 17:58:54;;;;;;;8.85;4.90;;;;;;;27.94;52.60;101710.09;21074550;28;20055;-57
2023/09/10 18:08:59;;;;;;;9.07;4.28;;;;;;;28.00;52.32;101692.00;21070672;28;20044;-58
2023/09/10 18:19:00;;;;;;;8.05;4.35;;;;;;;28.09;52.16;101690.94;21052366;28;20101;-59
2023/09/10 18:29:02;;;;;;;8.80;3.95;;;;;;;28.11;52.12;101652.06;21016101;28;20052;-59
2023/09/10 18:39:04;;;;;;;7.82;3.80;;;;;;;28.12;51.92;101639.66;21056360;28;20029;-58
2023/09/10 18:49:07;;;;;;;8.95;4.20;;;;;;;28.24;51.57;101618.59;21082290;28;20117;-58
2023/09/10 18:59:09;;;;;;;8.82;4.15;;;;;;;28.32;51.37;101603.78;21071536;28;20105;-58
2023/09/10 19:09:10;;;;;;;8.20;3.75;;;;;;;28.32;51.35;101586.91;21072430;28;20051;-59
2023/09/10 19:19:14;;;;;;;6.45;3.42;;;;;;;28.35;51.05;101564.59;21076473;28;20047;-58
2023/09/10 19:29:16;;;;;;;17.02;4.70;;;;;;;28.27;51.14;101556.91;21063243;28;20049;-60
2023/09/10 19:39:36;;;;;;;9.52;4.47;;;;;;;28.26;51.23;101555.22;21041219;28;20036;-55
2023/09/10 19:49:40;;;;;;;12.13;4.25;;;;;;;28.29;51.23;101548.97;21076535;28;20044;-55
2023/09/10 19:59:42;;;;;;;9.48;4.00;;;;;;;28.30;51.20;101539.34;21055658;28;20054;-53
2023/09/10 20:09:45;;;;;;;6.95;3.92;;;;;;;28.31;51.38;101549.47;21061849;28;20094;-54
2023/09/10 20:19:47;;;;;;;8.02;3.95;;;;;;;28.19;51.28;101526.69;21061321;28;20475;-59
2023/09/10 20:29:48;;;;;;;6.72;3.90;;;;;;;28.34;51.23;101534.78;21039669;28;20500;-51
2023/09/10 20:39:54;;;;;;;7.93;3.85;;;;;;;28.30;51.75;101530.09;21052655;28;20414;-56
2023/09/10 20:49:55;;;;;;;10.13;4.23;;;;;;;28.32;51.59;101514.56;21048418;28;20078;-55
2023/09/10 20:59:57;;;;;;;7.57;3.55;;;;;;;28.36;51.48;101531.66;21044779;28;20036;-53
2023/09/10 21:09:59;;;;;;;6.80;3.95;;;;;;;28.32;51.69;101520.19;21040426;28;20044;-58
2023/09/10 21:20:01;;;;;;;5.85;3.72;;;;;;;28.33;51.36;101561.25;21069129;28;20771;-54
2023/09/10 21:30:03;;;;;;;5.45;4.00;;;;;;;28.33;51.47;101566.88;21047859;28;20052;-55
2023/09/10 21:40:05;;;;;;;5.75;3.20;;;;;;;28.34;51.42;101562.94;21064979;28;20044;-56
2023/09/10 21:50:07;;;;;;;10.35;3.83;;;;;;;28.35;51.56;101570.22;21083024;28;20108;-58
2023/09/10 22:00:11;;;;;;;6.75;3.85;;;;;;;28.42;51.44;101557.72;21085135;28;20413;-57
2023/09/10 22:10:13;;;;;;;9.10;4.18;;;;;;;28.42;51.44;101546.47;21072766;28;20040;-53
2023/09/10 22:20:17;;;;;;;9.07;3.38;;;;;;;28.42;51.39;101557.72;21080527;28;20028;-56
2023/09/10 22:30:18;;;;;;;5.53;3.38;;;;;;;28.43;51.35;101570.63;21045643;28;20094;-58
2023/09/10 22:40:20;;;;;;;5.65;3.42;;;;;;;28.45;51.30;101563.53;21040357;28;20055;-58
2023/09/10 22:50:21;;;;;;;4.88;3.58;;;;;;;28.45;51.42;101573.94;21070755;28;20040;-57
2023/09/10 23:00:26;;;;;;;5.30;3.10;;;;;;;28.50;51.45;101576.66;21046383;28;20483;-56
2023/09/10 23:10:27;;;;;;;4.55;2.72;;;;;;;28.45;51.48;101571.97;21056109;28;20126;-56
2023/09/10 23:20:28;;;;;;;5.43;3.33;;;;;;;28.48;51.30;101582.59;21062147;28;20047;-57
2023/09/10 23:30:30;;;;;;;7.47;2.95;;;;;;;28.48;51.47;101562.06;21039390;28;20044;-55
2023/09/10 23:40:32;;;;;;;5.68;3.05;;;;;;;28.50;51.52;101577.50;21078814;28;20047;-55
2023/09/10 23:50:37;;;;;;;4.07;2.75;;;;;;;28.50;51.46;101593.53;21061157;28;20117;-54
